Aérodrome :
LOGIN :

S'inscrire | Disclaimer

   EN    FR    IT 

 










Légende :    VFR   VFR Marginal   IFR   IFR Intensif   IFR Très Intensif
Visi : 
Plafond : 
>= 8 km
>= 3000ft
5 à 8 km
1000 à 3000 ft
1500m à 5 km
500 à 1000 ft
800 à 1500m
200 à 500 ft
< 800m
< 200 ft
Symboles :   Orages  Brouillard  Fortes neiges  Fortes précipitations  Vent > 20 kt
SIGMETs :   Divers  Orages  Givrage  Turbulence  Onde Orograph.  Cendres Volcan.







- Altitude de l'aérodrome : 70 ft
- Code IATA : LEI


LEAM - Almeria

DERNIER METAR :
  • 152330Z AUTO 04005KT 9999 NCD 11/06 Q1025

METARs EXPIRÉS :
  • 152300Z AUTO 06005KT 9999 NCD 12/06 Q1025
  • 152230Z AUTO 06005KT 350V150 9999 NCD 12/07 Q1025
  • 152200Z AUTO 04006KT 350V080 9999 NCD 13/07 Q1025
  • 152130Z 05005KT 020V080 9999 FEW020 13/07 Q1025
  • 152100Z 05005KT 020V080 9999 FEW020 12/07 Q1025

TAF TAF LEAM
Valide du 15 à 21h jusqu'au 16 à 21h UTC


152000Z 1521/1621 34009KT 9999 FEW030 TX19/1615Z TN10/1606Z
BECMG 1608/1610 06020KT
PROB40
TEMPO 1610/1617 06025G35KT
BECMG 1618/1620 34009KT
Pas de NOTAMs connus pour ce terrain.



MET'MAP, la Météo Aéronautique d'un coup d'oeil ! - Copyright ORBIFLY Décembre 2007 - Disclaimer

ORBIFLY MET'MAP TEAM :

Programmation & Développement : Alexandra Zaïnal
Conception & Développement : Baudouin d'Aumeries
Co-Programmation & Développement : Marc-Olivier Méhu
Soutien technique & logistique : Manuel Goepfert

Contact : metmap@orbifly.com




SOURCES & CREDITS :

   NOAA